Flight Track Log - Related Links

Times and Time Zones

All times are in EDT time to prevent confusion due to time zone crossing. See the N88WZ flight status page for this flight to view local times or setup timezone preferences in your user account.

Time Position Orientation Groundspeed Altitude Reporting Facility
EDT Latitude Longitude Course Direction KTS MPH feet Rate Location/Type
Sat 03:09:54 PM 41.0833 -73.7000 37° Northeast 114 131 1,500  Level New York TRACON
Sat 03:10:54 PM 41.1167 -73.6667 37° Northeast 145 167 2,000 263 Climbing New York TRACON
Sat 03:11:48 PM 41.1333 -73.6167 66° East 174 200 2,000 53 Level New York TRACON
Sat 03:12:48 PM 41.1500 -73.5667 66° East 177 204 2,100  Climbing New York TRACON
Sat 03:13:54 PM 41.1667 -73.5000 72° East 169 194 2,000 -48 Descending New York TRACON
Sat 03:14:54 PM 41.2000 -73.4500 48° Northeast 161 185 2,000 53 Level New York TRACON
Sat 03:15:48 PM 41.2167 -73.4000 66° East 160 184 2,100 400 Climbing New York TRACON
Sat 03:16:54 PM 41.2500 -73.3500 48° Northeast 144 166 2,800 905 Climbing New York TRACON
Sat 03:17:54 PM 41.2667 -73.3167 56° Northeast 126 145 4,000 1,150 Climbing New York TRACON
Sat 03:18:54 PM 41.2833 -73.2833 56° Northeast 136 157 5,100 842 Climbing New York TRACON
Sat 03:19:48 PM 41.3000 -73.2333 66° East 162 186 5,600 263 Climbing New York TRACON
Sat 03:20:48 PM 41.3167 -73.1667 72° East 186 214 5,600 -48 Level New York TRACON
Sat 03:21:54 PM 41.3500 -73.1000 56° Northeast 192 221 5,500 -48 Descending New York TRACON
Sat 03:22:54 PM 41.3667 -73.0333 72° East 188 216 5,500  Level New York TRACON
Sat 03:24:00 PM 41.4055 -73.0222 12° North  Level FlightAware Approximate
Sat 03:31:00 PM 41.5682 -72.7637 52° Northeast  Level Estimated
Sat 03:32:00 PM 41.5922 -72.7276 48° Northeast  Level FlightAware Approximate
Sat 03:33:00 PM 41.6162 -72.6914 48° Northeast  Level FlightAware Approximate
Sat 03:33:27 PM 41.6897 -72.4650 49° Northeast 178 205 5,500  Level Boston Center
Sat 03:33:57 PM 41.7064 -72.4400 48° Northeast 181 208 5,500  Level Boston Center
Sat 03:34:00 PM 41.6401 -72.6552 48° Northeast  Level FlightAware Approximate
Sat 03:35:00 PM 41.6641 -72.6190 48° Northeast  Level FlightAware Approximate
Sat 03:35:00 PM 41.7378 -72.3872 51° Northeast 182 209 5,500  Level Boston Center
Sat 03:36:00 PM 41.6880 -72.5828 48° Northeast  Level FlightAware Approximate
Sat 03:36:01 PM 41.7708 -72.3372 48° Northeast 185 213 5,500  Level Boston Center
Sat 03:36:59 PM 41.8042 -72.2842 50° Northeast 182 209 5,500  Level Boston Center
Sat 03:37:00 PM 41.7120 -72.5465 49° Northeast  Level FlightAware Approximate
Sat 03:38:00 PM 41.7359 -72.5102 49° Northeast  Level FlightAware Approximate
Sat 03:38:03 PM 41.8397 -72.2339 46° Northeast 179 206 5,500  Level Boston Center
Sat 03:39:03 PM 41.8769 -72.1864 44° Northeast 177 204 5,200 -400 Descending Boston Center
Sat 03:40:03 PM 41.9164 -72.1472 36° Northeast 183 211 4,700 -545 Descending Boston Center
Sat 03:41:04 PM 41.9561 -72.1078 36° Northeast 168 193 4,100 -595 Descending Boston Center
Sat 03:42:04 PM 41.9956 -72.0575 43° Northeast 187 215 3,500 -298 Descending Boston Center
Sat 03:43:05 PM 42.0225 -72.0125 51° Northeast 160 184 3,500  Level Boston Center
Sat 03:44:05 PM 42.0514 -71.9675 49° Northeast 160 184 3,500  Level Boston Center
Sat 03:45:05 PM 42.0825 -71.9169 50° Northeast 160 184 3,500  Level Boston Center
Sat 03:46:06 PM 42.1092 -71.8719 51° Northeast 160 184 3,500  Level Boston Center
Sat 03:47:09 PM 42.1383 -71.8242 51° Northeast 159 183 3,500  Level Boston Center
Sat 03:48:10 PM 42.1692 -71.7819 45° Northeast 162 186 3,500 -49 Level Boston Center
Sat 03:49:11 PM 42.1981 -71.7339 51° Northeast 162 186 3,400 -98 Descending Boston Center
Sat 03:51:00 PM 42.2374 -71.6630 53° Northeast  Level FlightAware Approximate
Sat 03:58:00 PM 42.3994 -71.4013 56° Northeast  Level FlightAware Approximate
Sat 03:59:00 PM 42.4200 -71.3611 51° Northeast  Level FlightAware Approximate
Sat 04:00:00 PM 42.4428 -71.3231 51° Northeast  Level FlightAware Approximate
Sat 04:01:00 PM 42.4656 -71.2851 51° Northeast  Level FlightAware Approximate
Sat 04:02:00 PM 42.4667 -71.2833 51° Northeast  Level FlightAware Approximate
Sat 04:03:00 PM 42.4699 -71.2890 51° Northeast  Level Estimated
Sat 04:04:00 PM 42.4667 -71.2833 51° Northeast  Level FlightAware Approximate
Sat 04:05:00 PM 42.4699 -71.2890 51° Northeast  Level Estimated
Sat 04:06:00 PM 42.4667 -71.2833 51° Northeast  Level FlightAware Approximate
Sat 04:07:00 PM 42.4699 -71.2890 51° Northeast  Level Estimated
Sat 04:08:00 PM 42.4667 -71.2833 51° Northeast  Level FlightAware Approximate
Sat 04:09:00 PM 42.4699 -71.2890 51° Northeast  Level Estimated
Sat 04:10:00 PM 42.4667 -71.2833 51° Northeast  Level FlightAware Approximate
Sat 04:11:00 PM 42.4699 -71.2890 51° Northeast  Level Estimated
Sat 04:12:00 PM 42.4667 -71.2833 51° Northeast  Level FlightAware Approximate
Sat 04:13:00 PM 42.4699 -71.2890 51° Northeast  Level Estimated
Sat 04:14:00 PM 42.4667 -71.2833 51° Northeast  Level FlightAware Approximate
Sat 04:15:00 PM 42.4699 -71.2890 51° Northeast  Level Estimated
Sat 04:16:00 PM 42.4667 -71.2833 51° Northeast  Level FlightAware Approximate
Sat 04:17:00 PM 42.4699 -71.2890 51° Northeast  Level Estimated
Sat 04:18:00 PM 42.4667 -71.2833 51° Northeast  Level FlightAware Approximate
Sat 04:19:00 PM 42.4699 -71.2890 51° Northeast  Level Estimated
Sat 04:20:00 PM 42.4667 -71.2833 51° Northeast  Level FlightAware Approximate
Sat 04:21:00 PM 42.4699 -71.2890 51° Northeast  Level Estimated
Sat 04:22:00 PM 42.4667 -71.2833 51° Northeast  Level FlightAware Approximate
Sat 04:23:00 PM 42.4699 -71.2890 51° Northeast  Level Estimated
Sat 04:24:00 PM 42.4667 -71.2833 51° Northeast  Level FlightAware Approximate
Sat 04:25:00 PM 42.4699 -71.2890 51° Northeast  Level Estimated
Sat 04:26:00 PM 42.4667 -71.2833 51° Northeast  Level FlightAware Approximate
Sat 04:27:00 PM 42.4699 -71.2890 51° Northeast  Level Estimated
Sat 04:28:00 PM 42.4667 -71.2833 51° Northeast  Level FlightAware Approximate
Sat 04:29:00 PM 42.4699 -71.2890 51° Northeast  Level Estimated
Sat 04:30:00 PM 42.4667 -71.2833 51° Northeast  Level FlightAware Approximate

Login

Don't have an account? Register now (free) for customized features, flight alerts, and more!